Dahlgren, Virginia
Current Conditions -  °F | °C
As of 3:25 PM on Thursday 29 Jan 2015 (Local Time) from KNYG Reporting Station
Ice Pellets Ice Pellets  
Wind Chill: 30°   Ceiling: 7000
Heat Index: 37°   Visibility: 10mi
Dew Point: 20°   Wind: 10mph
Humidity: 50%   Direction: 170°S
Pressure: 30.13"   Gusts: NA
Location:  38.33°N, 77.05°W
Report Text: KNYG 292025Z 17009KT 10SM RAPL BKN070 OVC090 03/M07 A3013 RMK AO2 UPB13E18RAB25PLB19 PL P0000 T00281067
Loading
Personal Weather Stations






























Interactive Weather Map New forecast layout! Learn more

10-Day Weather Forecast

Advertisements
Track Severe Weather on mobile